Brook Park, Minnesota
Current Conditions -  °F | °C
As of 5:03 AM on Friday 24 Oct 2014 (Local Time) from K04W Reporting Station
Moderate Fog Moderate Fog  
Wind Chill: 46°   Ceiling: 200
Heat Index: 46°   Visibility: 0.5mi
Dew Point: 46°   Wind: 0mph
Humidity: 100%   Direction: NA
Pressure: 29.92"   Gusts: NA
Location:  45.95°N, 93.08°W
Report Text: K04W 241003Z AUTO 00000KT 1/2SM FG OVC002 08/08 A2992 RMK AO2
Loading
Personal Weather Stations






























Interactive Weather Map
Tropical Storm Tracking
New forecast layout! Learn more

10-Day Weather Forecast

Advertisements
Track Severe Weather on mobile